sensor_id;sensor_type;location;lat;lon;timestamp;P1;durP1;ratioP1;P2;durP2;ratioP2
38972;SDS011;25333;50.762;4.470;2022-07-22T00:02:22;6.28;;;2.00;;
38972;SDS011;25333;50.762;4.470;2022-07-22T00:04:48;3.03;;;1.90;;
38972;SDS011;25333;50.762;4.470;2022-07-22T00:07:14;6.10;;;2.17;;
38972;SDS011;25333;50.762;4.470;2022-07-22T00:09:40;4.07;;;1.25;;
38972;SDS011;25333;50.762;4.470;2022-07-22T00:12:06;4.82;;;2.00;;
38972;SDS011;25333;50.762;4.470;2022-07-22T00:14:32;4.55;;;1.98;;
38972;SDS011;25333;50.762;4.470;2022-07-22T00:16:58;4.57;;;2.20;;
38972;SDS011;25333;50.762;4.470;2022-07-22T00:19:23;8.00;;;2.20;;
38972;SDS011;25333;50.762;4.470;2022-07-22T00:21:50;3.20;;;1.43;;
38972;SDS011;25333;50.762;4.470;2022-07-22T00:24:16;4.70;;;1.73;;
38972;SDS011;25333;50.762;4.470;2022-07-22T00:26:42;4.03;;;1.60;;
38972;SDS011;25333;50.762;4.470;2022-07-22T00:29:08;3.63;;;2.03;;
38972;SDS011;25333;50.762;4.470;2022-07-22T00:31:34;4.13;;;1.83;;
38972;SDS011;25333;50.762;4.470;2022-07-22T00:34:00;6.53;;;1.98;;
38972;SDS011;25333;50.762;4.470;2022-07-22T00:36:29;6.20;;;2.58;;
38972;SDS011;25333;50.762;4.470;2022-07-22T00:38:55;2.95;;;2.05;;
38972;SDS011;25333;50.762;4.470;2022-07-22T00:41:21;2.85;;;1.52;;
38972;SDS011;25333;50.762;4.470;2022-07-22T00:43:51;3.95;;;1.55;;
38972;SDS011;25333;50.762;4.470;2022-07-22T00:46:18;4.45;;;2.40;;
38972;SDS011;25333;50.762;4.470;2022-07-22T00:48:43;3.40;;;1.52;;
38972;SDS011;25333;50.762;4.470;2022-07-22T00:51:09;7.15;;;2.03;;
38972;SDS011;25333;50.762;4.470;2022-07-22T00:53:35;3.13;;;1.67;;
38972;SDS011;25333;50.762;4.470;2022-07-22T00:56:01;5.07;;;1.67;;
38972;SDS011;25333;50.762;4.470;2022-07-22T00:58:28;3.75;;;1.65;;
38972;SDS011;25333;50.762;4.470;2022-07-22T01:00:53;4.35;;;1.42;;
38972;SDS011;25333;50.762;4.470;2022-07-22T01:03:19;2.13;;;1.20;;
38972;SDS011;25333;50.762;4.470;2022-07-22T01:05:45;4.60;;;1.60;;
38972;SDS011;25333;50.762;4.470;2022-07-22T01:08:11;5.35;;;1.70;;
38972;SDS011;25333;50.762;4.470;2022-07-22T01:10:37;3.30;;;1.30;;
38972;SDS011;25333;50.762;4.470;2022-07-22T01:13:03;5.03;;;1.70;;
38972;SDS011;25333;50.762;4.470;2022-07-22T01:15:28;5.47;;;1.87;;
38972;SDS011;25333;50.762;4.470;2022-07-22T01:17:54;5.03;;;2.23;;
38972;SDS011;25333;50.762;4.470;2022-07-22T01:20:20;5.72;;;1.70;;
38972;SDS011;25333;50.762;4.470;2022-07-22T01:22:45;3.60;;;1.27;;
38972;SDS011;25333;50.762;4.470;2022-07-22T01:25:11;5.10;;;1.90;;
38972;SDS011;25333;50.762;4.470;2022-07-22T01:27:37;3.00;;;1.38;;
38972;SDS011;25333;50.762;4.470;2022-07-22T01:30:04;3.43;;;1.30;;
38972;SDS011;25333;50.762;4.470;2022-07-22T01:32:30;6.05;;;2.33;;
38972;SDS011;25333;50.762;4.470;2022-07-22T01:34:56;2.67;;;1.30;;
38972;SDS011;25333;50.762;4.470;2022-07-22T01:37:22;5.85;;;1.92;;
38972;SDS011;25333;50.762;4.470;2022-07-22T01:39:48;3.08;;;1.45;;
38972;SDS011;25333;50.762;4.470;2022-07-22T01:42:14;2.83;;;1.40;;
38972;SDS011;25333;50.762;4.470;2022-07-22T01:44:40;2.50;;;1.17;;
38972;SDS011;25333;50.762;4.470;2022-07-22T01:47:06;4.47;;;1.50;;
38972;SDS011;25333;50.762;4.470;2022-07-22T01:49:32;7.45;;;1.60;;
38972;SDS011;25333;50.762;4.470;2022-07-22T01:51:59;4.38;;;2.08;;
38972;SDS011;25333;50.762;4.470;2022-07-22T01:54:25;3.90;;;1.73;;
38972;SDS011;25333;50.762;4.470;2022-07-22T01:56:51;2.47;;;1.07;;
38972;SDS011;25333;50.762;4.470;2022-07-22T01:59:17;3.50;;;1.50;;
38972;SDS011;25333;50.762;4.470;2022-07-22T02:01:42;3.03;;;1.48;;
38972;SDS011;25333;50.762;4.470;2022-07-22T02:04:08;2.50;;;1.10;;
38972;SDS011;25333;50.762;4.470;2022-07-22T02:06:34;2.85;;;1.20;;
38972;SDS011;25333;50.762;4.470;2022-07-22T02:08:59;3.47;;;1.38;;
38972;SDS011;25333;50.762;4.470;2022-07-22T02:11:25;4.25;;;1.70;;
38972;SDS011;25333;50.762;4.470;2022-07-22T02:13:50;3.87;;;1.60;;
38972;SDS011;25333;50.762;4.470;2022-07-22T02:16:16;2.23;;;1.00;;
38972;SDS011;25333;50.762;4.470;2022-07-22T02:18:41;5.77;;;1.33;;
38972;SDS011;25333;50.762;4.470;2022-07-22T02:21:07;4.07;;;1.48;;
38972;SDS011;25333;50.762;4.470;2022-07-22T02:23:33;2.53;;;1.40;;
38972;SDS011;25333;50.762;4.470;2022-07-22T02:25:58;3.75;;;1.58;;
38972;SDS011;25333;50.762;4.470;2022-07-22T02:28:24;4.23;;;1.40;;
38972;SDS011;25333;50.762;4.470;2022-07-22T02:30:49;2.83;;;1.67;;
38972;SDS011;25333;50.762;4.470;2022-07-22T02:33:15;3.05;;;1.15;;
38972;SDS011;25333;50.762;4.470;2022-07-22T02:35:41;3.38;;;1.40;;
38972;SDS011;25333;50.762;4.470;2022-07-22T02:38:06;1.65;;;1.10;;
38972;SDS011;25333;50.762;4.470;2022-07-22T02:40:32;4.30;;;1.43;;
38972;SDS011;25333;50.762;4.470;2022-07-22T02:42:58;6.10;;;1.33;;
38972;SDS011;25333;50.762;4.470;2022-07-22T02:45:24;3.85;;;1.52;;
38972;SDS011;25333;50.762;4.470;2022-07-22T02:47:53;3.40;;;1.37;;
38972;SDS011;25333;50.762;4.470;2022-07-22T02:50:21;3.55;;;1.30;;
38972;SDS011;25333;50.762;4.470;2022-07-22T02:52:47;4.70;;;1.60;;
38972;SDS011;25333;50.762;4.470;2022-07-22T02:55:13;3.43;;;1.07;;
38972;SDS011;25333;50.762;4.470;2022-07-22T02:57:38;4.88;;;1.83;;
38972;SDS011;25333;50.762;4.470;2022-07-22T03:00:05;3.50;;;1.17;;
38972;SDS011;25333;50.762;4.470;2022-07-22T03:02:33;4.68;;;1.70;;
38972;SDS011;25333;50.762;4.470;2022-07-22T03:05:00;4.22;;;1.75;;
38972;SDS011;25333;50.762;4.470;2022-07-22T03:07:26;3.67;;;1.35;;
38972;SDS011;25333;50.762;4.470;2022-07-22T03:09:51;2.20;;;1.30;;
38972;SDS011;25333;50.762;4.470;2022-07-22T03:12:17;1.90;;;0.97;;
38972;SDS011;25333;50.762;4.470;2022-07-22T03:14:43;3.40;;;1.20;;
38972;SDS011;25333;50.762;4.470;2022-07-22T03:17:08;4.95;;;1.80;;
38972;SDS011;25333;50.762;4.470;2022-07-22T03:19:34;4.00;;;1.40;;
38972;SDS011;25333;50.762;4.470;2022-07-22T03:21:59;5.63;;;1.60;;
38972;SDS011;25333;50.762;4.470;2022-07-22T03:24:25;3.17;;;1.20;;
38972;SDS011;25333;50.762;4.470;2022-07-22T03:26:51;3.67;;;1.15;;
38972;SDS011;25333;50.762;4.470;2022-07-22T03:29:16;2.63;;;1.50;;
38972;SDS011;25333;50.762;4.470;2022-07-22T03:31:42;3.33;;;1.10;;
38972;SDS011;25333;50.762;4.470;2022-07-22T03:34:07;3.43;;;1.47;;
38972;SDS011;25333;50.762;4.470;2022-07-22T03:36:33;3.17;;;1.33;;
38972;SDS011;25333;50.762;4.470;2022-07-22T03:38:59;3.53;;;1.48;;
38972;SDS011;25333;50.762;4.470;2022-07-22T03:41:24;3.83;;;1.47;;
38972;SDS011;25333;50.762;4.470;2022-07-22T03:43:50;3.17;;;1.30;;
38972;SDS011;25333;50.762;4.470;2022-07-22T03:46:16;4.63;;;1.50;;
38972;SDS011;25333;50.762;4.470;2022-07-22T03:48:41;4.53;;;1.50;;
38972;SDS011;25333;50.762;4.470;2022-07-22T03:51:07;3.20;;;1.35;;
38972;SDS011;25333;50.762;4.470;2022-07-22T03:53:33;4.10;;;1.77;;
38972;SDS011;25333;50.762;4.470;2022-07-22T03:55:59;2.55;;;1.17;;
38972;SDS011;25333;50.762;4.470;2022-07-22T03:58:25;4.05;;;1.38;;
38972;SDS011;25333;50.762;4.470;2022-07-22T04:00:51;2.97;;;1.17;;
38972;SDS011;25333;50.762;4.470;2022-07-22T04:03:17;4.63;;;1.70;;
38972;SDS011;25333;50.762;4.470;2022-07-22T04:05:43;3.20;;;1.13;;
38972;SDS011;25333;50.762;4.470;2022-07-22T04:08:09;4.57;;;1.67;;
38972;SDS011;25333;50.762;4.470;2022-07-22T04:10:36;4.40;;;1.67;;
38972;SDS011;25333;50.762;4.470;2022-07-22T04:13:02;2.80;;;1.20;;
38972;SDS011;25333;50.762;4.470;2022-07-22T04:15:28;4.53;;;1.52;;
38972;SDS011;25333;50.762;4.470;2022-07-22T04:17:53;2.85;;;1.45;;
38972;SDS011;25333;50.762;4.470;2022-07-22T04:20:19;3.47;;;1.45;;
38972;SDS011;25333;50.762;4.470;2022-07-22T04:22:45;2.30;;;1.27;;
38972;SDS011;25333;50.762;4.470;2022-07-22T04:25:10;3.07;;;1.63;;
38972;SDS011;25333;50.762;4.470;2022-07-22T04:27:36;3.25;;;1.40;;
38972;SDS011;25333;50.762;4.470;2022-07-22T04:30:02;3.40;;;1.50;;
38972;SDS011;25333;50.762;4.470;2022-07-22T04:32:28;2.30;;;1.30;;
38972;SDS011;25333;50.762;4.470;2022-07-22T04:34:54;4.00;;;1.60;;
38972;SDS011;25333;50.762;4.470;2022-07-22T04:37:19;3.08;;;1.50;;
38972;SDS011;25333;50.762;4.470;2022-07-22T04:39:45;2.40;;;1.23;;
38972;SDS011;25333;50.762;4.470;2022-07-22T04:42:11;3.40;;;1.30;;
38972;SDS011;25333;50.762;4.470;2022-07-22T04:44:36;4.70;;;1.60;;
38972;SDS011;25333;50.762;4.470;2022-07-22T04:47:02;4.22;;;0.98;;
38972;SDS011;25333;50.762;4.470;2022-07-22T04:49:28;4.03;;;1.75;;
38972;SDS011;25333;50.762;4.470;2022-07-22T04:51:54;3.67;;;1.40;;
38972;SDS011;25333;50.762;4.470;2022-07-22T04:54:19;3.75;;;1.55;;
38972;SDS011;25333;50.762;4.470;2022-07-22T04:56:45;3.57;;;1.23;;
38972;SDS011;25333;50.762;4.470;2022-07-22T04:59:11;6.90;;;1.83;;
38972;SDS011;25333;50.762;4.470;2022-07-22T05:01:36;4.35;;;1.73;;
38972;SDS011;25333;50.762;4.470;2022-07-22T05:04:02;4.10;;;1.80;;
38972;SDS011;25333;50.762;4.470;2022-07-22T05:06:28;2.97;;;1.92;;
38972;SDS011;25333;50.762;4.470;2022-07-22T05:08:54;9.13;;;1.88;;
38972;SDS011;25333;50.762;4.470;2022-07-22T05:11:19;4.70;;;1.60;;
38972;SDS011;25333;50.762;4.470;2022-07-22T05:13:45;3.40;;;1.50;;
38972;SDS011;25333;50.762;4.470;2022-07-22T05:16:11;8.00;;;2.28;;
38972;SDS011;25333;50.762;4.470;2022-07-22T05:18:36;7.07;;;1.55;;
38972;SDS011;25333;50.762;4.470;2022-07-22T05:21:03;4.90;;;2.08;;
38972;SDS011;25333;50.762;4.470;2022-07-22T05:23:29;3.65;;;1.83;;
38972;SDS011;25333;50.762;4.470;2022-07-22T05:25:55;6.45;;;2.22;;
38972;SDS011;25333;50.762;4.470;2022-07-22T05:28:20;4.73;;;2.03;;
38972;SDS011;25333;50.762;4.470;2022-07-22T05:30:46;4.57;;;2.43;;
38972;SDS011;25333;50.762;4.470;2022-07-22T05:33:12;6.25;;;2.55;;
38972;SDS011;25333;50.762;4.470;2022-07-22T05:35:37;4.57;;;2.30;;
38972;SDS011;25333;50.762;4.470;2022-07-22T05:38:03;5.90;;;3.00;;
38972;SDS011;25333;50.762;4.470;2022-07-22T05:40:30;4.25;;;2.78;;
38972;SDS011;25333;50.762;4.470;2022-07-22T05:42:57;10.40;;;4.35;;
38972;SDS011;25333;50.762;4.470;2022-07-22T05:45:23;7.07;;;4.43;;
38972;SDS011;25333;50.762;4.470;2022-07-22T05:47:48;7.40;;;4.80;;
38972;SDS011;25333;50.762;4.470;2022-07-22T05:50:14;7.80;;;3.90;;
38972;SDS011;25333;50.762;4.470;2022-07-22T05:52:40;9.73;;;6.37;;
38972;SDS011;25333;50.762;4.470;2022-07-22T05:55:06;13.38;;;6.97;;
38972;SDS011;25333;50.762;4.470;2022-07-22T05:57:32;11.48;;;6.95;;
38972;SDS011;25333;50.762;4.470;2022-07-22T05:59:58;12.03;;;5.73;;
38972;SDS011;25333;50.762;4.470;2022-07-22T06:02:24;9.93;;;6.18;;
38972;SDS011;25333;50.762;4.470;2022-07-22T06:04:49;12.88;;;6.63;;
38972;SDS011;25333;50.762;4.470;2022-07-22T06:07:15;11.97;;;7.20;;
38972;SDS011;25333;50.762;4.470;2022-07-22T06:09:41;11.38;;;6.32;;
38972;SDS011;25333;50.762;4.470;2022-07-22T06:12:06;13.27;;;7.15;;
38972;SDS011;25333;50.762;4.470;2022-07-22T06:14:32;11.00;;;5.83;;
38972;SDS011;25333;50.762;4.470;2022-07-22T06:16:58;11.52;;;6.63;;
38972;SDS011;25333;50.762;4.470;2022-07-22T06:19:24;14.10;;;6.10;;
38972;SDS011;25333;50.762;4.470;2022-07-22T06:21:50;11.53;;;6.97;;
38972;SDS011;25333;50.762;4.470;2022-07-22T06:24:16;15.07;;;7.32;;
38972;SDS011;25333;50.762;4.470;2022-07-22T06:26:41;14.77;;;6.50;;
38972;SDS011;25333;50.762;4.470;2022-07-22T06:29:07;16.63;;;8.07;;
38972;SDS011;25333;50.762;4.470;2022-07-22T06:31:33;15.70;;;7.05;;
38972;SDS011;25333;50.762;4.470;2022-07-22T06:33:59;12.23;;;7.90;;
38972;SDS011;25333;50.762;4.470;2022-07-22T06:36:25;10.63;;;6.40;;
38972;SDS011;25333;50.762;4.470;2022-07-22T06:38:50;14.80;;;7.18;;
38972;SDS011;25333;50.762;4.470;2022-07-22T06:41:16;12.82;;;7.10;;
38972;SDS011;25333;50.762;4.470;2022-07-22T06:43:44;8.20;;;5.13;;
38972;SDS011;25333;50.762;4.470;2022-07-22T06:46:10;12.25;;;5.60;;
38972;SDS011;25333;50.762;4.470;2022-07-22T06:48:36;6.70;;;4.67;;
38972;SDS011;25333;50.762;4.470;2022-07-22T06:51:01;8.13;;;4.57;;
38972;SDS011;25333;50.762;4.470;2022-07-22T06:53:27;8.73;;;4.93;;
38972;SDS011;25333;50.762;4.470;2022-07-22T06:55:53;10.57;;;6.70;;
38972;SDS011;25333;50.762;4.470;2022-07-22T06:58:19;11.13;;;5.53;;
38972;SDS011;25333;50.762;4.470;2022-07-22T07:00:45;8.32;;;5.07;;
38972;SDS011;25333;50.762;4.470;2022-07-22T07:03:11;8.15;;;4.88;;
38972;SDS011;25333;50.762;4.470;2022-07-22T07:05:37;8.95;;;5.13;;
38972;SDS011;25333;50.762;4.470;2022-07-22T07:08:02;5.18;;;3.80;;
38972;SDS011;25333;50.762;4.470;2022-07-22T07:10:28;5.60;;;2.97;;
38972;SDS011;25333;50.762;4.470;2022-07-22T07:12:57;6.07;;;3.28;;
38972;SDS011;25333;50.762;4.470;2022-07-22T07:15:24;6.83;;;3.70;;
38972;SDS011;25333;50.762;4.470;2022-07-22T07:17:51;8.05;;;3.33;;
38972;SDS011;25333;50.762;4.470;2022-07-22T07:20:17;8.90;;;3.47;;
38972;SDS011;25333;50.762;4.470;2022-07-22T07:22:43;8.48;;;3.53;;
38972;SDS011;25333;50.762;4.470;2022-07-22T07:25:09;6.10;;;2.90;;
38972;SDS011;25333;50.762;4.470;2022-07-22T07:27:34;6.83;;;2.70;;
38972;SDS011;25333;50.762;4.470;2022-07-22T07:30:01;8.07;;;3.33;;
38972;SDS011;25333;50.762;4.470;2022-07-22T07:32:28;7.22;;;3.33;;
38972;SDS011;25333;50.762;4.470;2022-07-22T07:34:54;5.40;;;3.03;;
38972;SDS011;25333;50.762;4.470;2022-07-22T07:37:20;4.40;;;2.63;;
38972;SDS011;25333;50.762;4.470;2022-07-22T07:39:45;6.85;;;3.35;;
38972;SDS011;25333;50.762;4.470;2022-07-22T07:42:11;6.47;;;3.42;;
38972;SDS011;25333;50.762;4.470;2022-07-22T07:44:37;4.93;;;3.13;;
38972;SDS011;25333;50.762;4.470;2022-07-22T07:47:02;4.97;;;3.07;;
38972;SDS011;25333;50.762;4.470;2022-07-22T07:49:28;6.55;;;3.42;;
38972;SDS011;25333;50.762;4.470;2022-07-22T07:51:54;6.25;;;3.35;;
38972;SDS011;25333;50.762;4.470;2022-07-22T07:54:20;5.00;;;3.22;;
38972;SDS011;25333;50.762;4.470;2022-07-22T07:56:46;7.43;;;3.80;;
38972;SDS011;25333;50.762;4.470;2022-07-22T07:59:11;5.60;;;2.92;;
38972;SDS011;25333;50.762;4.470;2022-07-22T08:01:37;5.13;;;3.60;;
38972;SDS011;25333;50.762;4.470;2022-07-22T08:04:03;6.87;;;3.63;;
38972;SDS011;25333;50.762;4.470;2022-07-22T08:06:29;6.70;;;3.35;;
38972;SDS011;25333;50.762;4.470;2022-07-22T08:08:54;6.95;;;3.47;;
38972;SDS011;25333;50.762;4.470;2022-07-22T08:11:20;7.10;;;3.35;;
38972;SDS011;25333;50.762;4.470;2022-07-22T08:13:46;6.30;;;3.27;;
38972;SDS011;25333;50.762;4.470;2022-07-22T08:16:11;6.43;;;3.27;;
38972;SDS011;25333;50.762;4.470;2022-07-22T08:18:37;5.33;;;3.67;;
38972;SDS011;25333;50.762;4.470;2022-07-22T08:21:03;6.50;;;3.60;;
38972;SDS011;25333;50.762;4.470;2022-07-22T08:23:28;6.22;;;3.85;;
38972;SDS011;25333;50.762;4.470;2022-07-22T08:25:54;6.30;;;3.55;;
38972;SDS011;25333;50.762;4.470;2022-07-22T08:28:20;6.23;;;4.00;;
38972;SDS011;25333;50.762;4.470;2022-07-22T08:30:46;6.05;;;3.80;;
38972;SDS011;25333;50.762;4.470;2022-07-22T08:33:12;9.43;;;4.43;;
38972;SDS011;25333;50.762;4.470;2022-07-22T08:35:37;5.97;;;3.85;;
38972;SDS011;25333;50.762;4.470;2022-07-22T08:38:03;7.63;;;4.93;;
38972;SDS011;25333;50.762;4.470;2022-07-22T08:40:29;5.80;;;3.70;;
38972;SDS011;25333;50.762;4.470;2022-07-22T08:42:54;6.50;;;3.60;;
38972;SDS011;25333;50.762;4.470;2022-07-22T08:45:20;5.22;;;3.40;;
38972;SDS011;25333;50.762;4.470;2022-07-22T08:47:47;7.47;;;3.53;;
38972;SDS011;25333;50.762;4.470;2022-07-22T08:50:15;5.05;;;3.38;;
38972;SDS011;25333;50.762;4.470;2022-07-22T08:52:41;6.87;;;3.60;;
38972;SDS011;25333;50.762;4.470;2022-07-22T08:55:07;4.93;;;3.05;;
38972;SDS011;25333;50.762;4.470;2022-07-22T08:57:34;5.70;;;3.60;;
38972;SDS011;25333;50.762;4.470;2022-07-22T09:00:09;4.82;;;3.83;;
38972;SDS011;25333;50.762;4.470;2022-07-22T09:02:37;6.57;;;3.70;;
38972;SDS011;25333;50.762;4.470;2022-07-22T09:05:05;8.05;;;4.05;;
38972;SDS011;25333;50.762;4.470;2022-07-22T09:07:33;7.22;;;3.40;;
38972;SDS011;25333;50.762;4.470;2022-07-22T09:10:04;6.75;;;3.30;;
38972;SDS011;25333;50.762;4.470;2022-07-22T09:12:33;6.65;;;3.63;;
38972;SDS011;25333;50.762;4.470;2022-07-22T09:15:00;8.35;;;3.33;;
38972;SDS011;25333;50.762;4.470;2022-07-22T09:17:28;6.55;;;3.08;;
38972;SDS011;25333;50.762;4.470;2022-07-22T09:19:57;6.93;;;3.10;;
38972;SDS011;25333;50.762;4.470;2022-07-22T09:22:34;7.35;;;3.15;;
38972;SDS011;25333;50.762;4.470;2022-07-22T09:28:08;5.72;;;3.20;;
38972;SDS011;25333;50.762;4.470;2022-07-22T09:30:54;7.20;;;2.65;;
38972;SDS011;25333;50.762;4.470;2022-07-22T09:33:20;6.07;;;2.67;;
38972;SDS011;25333;50.762;4.470;2022-07-22T09:35:47;6.38;;;2.60;;
38972;SDS011;25333;50.762;4.470;2022-07-22T09:38:14;6.15;;;3.28;;
38972;SDS011;25333;50.762;4.470;2022-07-22T09:40:42;4.75;;;3.55;;
38972;SDS011;25333;50.762;4.470;2022-07-22T09:43:10;7.20;;;3.17;;
38972;SDS011;25333;50.762;4.470;2022-07-22T09:45:53;7.00;;;3.40;;
38972;SDS011;25333;50.762;4.470;2022-07-22T09:48:22;5.20;;;3.40;;
38972;SDS011;25333;50.762;4.470;2022-07-22T09:50:48;4.60;;;3.00;;
38972;SDS011;25333;50.762;4.470;2022-07-22T09:53:16;4.60;;;2.40;;
38972;SDS011;25333;50.762;4.470;2022-07-22T09:55:46;6.15;;;3.38;;
38972;SDS011;25333;50.762;4.470;2022-07-22T09:58:12;3.75;;;2.05;;
38972;SDS011;25333;50.762;4.470;2022-07-22T10:00:38;3.28;;;2.33;;
38972;SDS011;25333;50.762;4.470;2022-07-22T10:03:06;4.53;;;2.33;;
38972;SDS011;25333;50.762;4.470;2022-07-22T10:05:41;4.45;;;2.47;;
38972;SDS011;25333;50.762;4.470;2022-07-22T10:08:08;3.58;;;2.33;;
38972;SDS011;25333;50.762;4.470;2022-07-22T10:10:34;4.30;;;1.95;;
38972;SDS011;25333;50.762;4.470;2022-07-22T10:13:03;4.72;;;2.30;;
38972;SDS011;25333;50.762;4.470;2022-07-22T10:15:30;3.70;;;2.22;;
38972;SDS011;25333;50.762;4.470;2022-07-22T10:18:02;3.30;;;2.17;;
38972;SDS011;25333;50.762;4.470;2022-07-22T10:20:31;5.05;;;2.92;;
38972;SDS011;25333;50.762;4.470;2022-07-22T10:23:01;3.95;;;2.20;;
38972;SDS011;25333;50.762;4.470;2022-07-22T10:25:32;2.83;;;1.70;;
38972;SDS011;25333;50.762;4.470;2022-07-22T10:28:24;3.72;;;2.28;;
38972;SDS011;25333;50.762;4.470;2022-07-22T10:30:50;6.55;;;2.13;;
38972;SDS011;25333;50.762;4.470;2022-07-22T10:33:18;4.65;;;2.55;;
38972;SDS011;25333;50.762;4.470;2022-07-22T10:35:55;4.32;;;1.80;;
38972;SDS011;25333;50.762;4.470;2022-07-22T10:38:23;4.55;;;1.92;;
38972;SDS011;25333;50.762;4.470;2022-07-22T10:40:50;3.20;;;1.73;;
38972;SDS011;25333;50.762;4.470;2022-07-22T10:46:08;4.25;;;2.10;;
38972;SDS011;25333;50.762;4.470;2022-07-22T10:53:39;5.07;;;1.90;;
38972;SDS011;25333;50.762;4.470;2022-07-22T10:56:16;6.15;;;2.08;;
38972;SDS011;25333;50.762;4.470;2022-07-22T10:58:48;4.03;;;1.55;;
38972;SDS011;25333;50.762;4.470;2022-07-22T11:01:17;4.53;;;2.35;;
38972;SDS011;25333;50.762;4.470;2022-07-22T11:03:45;3.08;;;1.45;;
38972;SDS011;25333;50.762;4.470;2022-07-22T11:08:41;3.25;;;1.40;;
38972;SDS011;25333;50.762;4.470;2022-07-22T11:11:07;4.20;;;1.87;;
38972;SDS011;25333;50.762;4.470;2022-07-22T11:13:34;3.70;;;2.05;;
38972;SDS011;25333;50.762;4.470;2022-07-22T11:16:21;4.57;;;1.95;;
38972;SDS011;25333;50.762;4.470;2022-07-22T11:18:51;5.13;;;2.47;;
38972;SDS011;25333;50.762;4.470;2022-07-22T11:21:21;3.92;;;1.90;;
38972;SDS011;25333;50.762;4.470;2022-07-22T11:23:52;4.03;;;2.28;;
38972;SDS011;25333;50.762;4.470;2022-07-22T11:26:53;3.88;;;2.20;;
38972;SDS011;25333;50.762;4.470;2022-07-22T11:32:06;3.97;;;2.47;;
38972;SDS011;25333;50.762;4.470;2022-07-22T11:34:39;4.63;;;1.95;;
38972;SDS011;25333;50.762;4.470;2022-07-22T11:37:11;4.55;;;2.28;;
38972;SDS011;25333;50.762;4.470;2022-07-22T11:39:38;3.83;;;2.20;;
38972;SDS011;25333;50.762;4.470;2022-07-22T11:42:03;6.90;;;2.20;;
38972;SDS011;25333;50.762;4.470;2022-07-22T11:44:30;6.07;;;2.30;;
38972;SDS011;25333;50.762;4.470;2022-07-22T11:46:57;4.60;;;2.50;;
38972;SDS011;25333;50.762;4.470;2022-07-22T11:49:24;3.60;;;2.00;;
38972;SDS011;25333;50.762;4.470;2022-07-22T11:51:55;6.10;;;2.13;;
38972;SDS011;25333;50.762;4.470;2022-07-22T11:54:21;3.50;;;2.50;;
38972;SDS011;25333;50.762;4.470;2022-07-22T11:56:47;3.33;;;2.13;;
38972;SDS011;25333;50.762;4.470;2022-07-22T11:59:14;4.05;;;2.10;;
38972;SDS011;25333;50.762;4.470;2022-07-22T12:01:42;4.30;;;2.20;;
38972;SDS011;25333;50.762;4.470;2022-07-22T12:04:27;4.80;;;2.00;;
38972;SDS011;25333;50.762;4.470;2022-07-22T12:06:57;3.65;;;1.73;;
38972;SDS011;25333;50.762;4.470;2022-07-22T12:09:24;3.42;;;2.47;;
38972;SDS011;25333;50.762;4.470;2022-07-22T12:12:00;5.45;;;1.90;;
38972;SDS011;25333;50.762;4.470;2022-07-22T12:14:27;4.07;;;2.00;;
38972;SDS011;25333;50.762;4.470;2022-07-22T12:19:27;2.90;;;2.22;;
38972;SDS011;25333;50.762;4.470;2022-07-22T12:21:55;3.92;;;1.63;;
38972;SDS011;25333;50.762;4.470;2022-07-22T12:24:33;4.18;;;1.92;;
38972;SDS011;25333;50.762;4.470;2022-07-22T12:27:04;5.03;;;2.15;;
38972;SDS011;25333;50.762;4.470;2022-07-22T12:32:04;4.45;;;2.17;;
38972;SDS011;25333;50.762;4.470;2022-07-22T12:34:44;2.22;;;1.40;;
38972;SDS011;25333;50.762;4.470;2022-07-22T12:42:40;2.92;;;1.67;;
38972;SDS011;25333;50.762;4.470;2022-07-22T12:47:40;3.50;;;1.98;;
38972;SDS011;25333;50.762;4.470;2022-07-22T12:50:29;3.63;;;2.07;;
38972;SDS011;25333;50.762;4.470;2022-07-22T12:55:42;5.13;;;1.92;;
38972;SDS011;25333;50.762;4.470;2022-07-22T12:58:08;6.78;;;1.70;;
38972;SDS011;25333;50.762;4.470;2022-07-22T13:00:35;5.00;;;1.80;;
38972;SDS011;25333;50.762;4.470;2022-07-22T13:03:09;3.10;;;1.75;;
38972;SDS011;25333;50.762;4.470;2022-07-22T13:05:35;4.82;;;2.30;;
38972;SDS011;25333;50.762;4.470;2022-07-22T13:08:01;4.13;;;2.50;;
38972;SDS011;25333;50.762;4.470;2022-07-22T13:10:27;3.08;;;1.90;;
38972;SDS011;25333;50.762;4.470;2022-07-22T13:12:53;2.73;;;2.00;;
38972;SDS011;25333;50.762;4.470;2022-07-22T13:15:19;6.25;;;1.80;;
38972;SDS011;25333;50.762;4.470;2022-07-22T13:17:46;4.07;;;1.90;;
38972;SDS011;25333;50.762;4.470;2022-07-22T13:20:13;6.60;;;2.70;;
38972;SDS011;25333;50.762;4.470;2022-07-22T13:22:43;3.15;;;2.20;;
38972;SDS011;25333;50.762;4.470;2022-07-22T13:25:10;3.37;;;1.90;;
38972;SDS011;25333;50.762;4.470;2022-07-22T13:27:36;6.88;;;2.60;;
38972;SDS011;25333;50.762;4.470;2022-07-22T13:30:02;2.63;;;1.90;;
38972;SDS011;25333;50.762;4.470;2022-07-22T13:32:28;3.80;;;2.45;;
38972;SDS011;25333;50.762;4.470;2022-07-22T13:34:54;2.93;;;2.07;;
38972;SDS011;25333;50.762;4.470;2022-07-22T13:37:20;3.72;;;2.70;;
38972;SDS011;25333;50.762;4.470;2022-07-22T13:39:46;4.40;;;2.22;;
38972;SDS011;25333;50.762;4.470;2022-07-22T13:42:13;3.85;;;2.08;;
38972;SDS011;25333;50.762;4.470;2022-07-22T13:44:42;3.00;;;2.13;;
38972;SDS011;25333;50.762;4.470;2022-07-22T13:47:09;3.13;;;2.63;;
38972;SDS011;25333;50.762;4.470;2022-07-22T13:49:35;3.38;;;2.22;;
38972;SDS011;25333;50.762;4.470;2022-07-22T13:52:00;2.78;;;2.13;;
38972;SDS011;25333;50.762;4.470;2022-07-22T13:54:27;2.80;;;2.00;;
38972;SDS011;25333;50.762;4.470;2022-07-22T13:56:52;3.93;;;2.57;;
38972;SDS011;25333;50.762;4.470;2022-07-22T13:59:18;3.90;;;2.30;;
38972;SDS011;25333;50.762;4.470;2022-07-22T14:01:44;3.50;;;2.57;;
38972;SDS011;25333;50.762;4.470;2022-07-22T14:04:09;4.57;;;2.55;;
38972;SDS011;25333;50.762;4.470;2022-07-22T14:06:35;4.13;;;2.50;;
38972;SDS011;25333;50.762;4.470;2022-07-22T14:09:01;4.40;;;2.33;;
38972;SDS011;25333;50.762;4.470;2022-07-22T14:11:28;4.30;;;2.38;;
38972;SDS011;25333;50.762;4.470;2022-07-22T14:13:54;4.15;;;1.85;;
38972;SDS011;25333;50.762;4.470;2022-07-22T14:16:19;4.97;;;2.70;;
38972;SDS011;25333;50.762;4.470;2022-07-22T14:19:01;3.30;;;2.15;;
38972;SDS011;25333;50.762;4.470;2022-07-22T14:21:32;4.43;;;1.92;;
38972;SDS011;25333;50.762;4.470;2022-07-22T14:23:58;4.22;;;2.90;;
38972;SDS011;25333;50.762;4.470;2022-07-22T14:26:24;4.80;;;2.30;;
38972;SDS011;25333;50.762;4.470;2022-07-22T14:28:50;4.13;;;2.58;;
38972;SDS011;25333;50.762;4.470;2022-07-22T14:31:16;2.57;;;2.07;;
38972;SDS011;25333;50.762;4.470;2022-07-22T14:33:42;6.00;;;2.73;;
38972;SDS011;25333;50.762;4.470;2022-07-22T14:36:07;4.63;;;1.90;;
38972;SDS011;25333;50.762;4.470;2022-07-22T14:38:33;5.03;;;2.20;;
38972;SDS011;25333;50.762;4.470;2022-07-22T14:40:59;3.00;;;2.20;;
38972;SDS011;25333;50.762;4.470;2022-07-22T14:43:24;5.70;;;2.58;;
38972;SDS011;25333;50.762;4.470;2022-07-22T14:45:50;4.95;;;2.08;;
38972;SDS011;25333;50.762;4.470;2022-07-22T14:48:16;3.60;;;1.70;;
38972;SDS011;25333;50.762;4.470;2022-07-22T14:50:41;3.25;;;1.80;;
38972;SDS011;25333;50.762;4.470;2022-07-22T14:53:07;3.95;;;2.17;;
38972;SDS011;25333;50.762;4.470;2022-07-22T14:55:33;4.28;;;2.30;;
38972;SDS011;25333;50.762;4.470;2022-07-22T14:57:58;2.85;;;1.90;;
38972;SDS011;25333;50.762;4.470;2022-07-22T15:00:24;5.23;;;2.57;;
38972;SDS011;25333;50.762;4.470;2022-07-22T15:02:50;4.40;;;2.47;;
38972;SDS011;25333;50.762;4.470;2022-07-22T15:05:15;3.05;;;2.17;;
38972;SDS011;25333;50.762;4.470;2022-07-22T15:07:41;3.30;;;2.13;;
38972;SDS011;25333;50.762;4.470;2022-07-22T15:10:07;4.90;;;2.45;;
38972;SDS011;25333;50.762;4.470;2022-07-22T15:12:33;4.22;;;2.13;;
38972;SDS011;25333;50.762;4.470;2022-07-22T15:14:59;3.00;;;1.93;;
38972;SDS011;25333;50.762;4.470;2022-07-22T15:17:25;5.57;;;2.40;;
38972;SDS011;25333;50.762;4.470;2022-07-22T15:19:50;4.20;;;2.37;;